Time;durP1;ratioP1;P1;durP2;ratioP2;P2;SDS_P1;SDS_P2;PMS_P1;PMS_P2;Temp;Humidity;BMP_temperature;BMP_pressure;BME280_temperature;BME280_humidity;BME280_pressure;Samples;Min_cycle;Max_cycle;Signal;HPM_P1;HPM_P2
2021/05/10 00:00:53;;;;;;;4.15;3.13;;;20.80;76.50;;;;;;5055925;28;20039;-87
2021/05/10 00:03:20;;;;;;;4.63;3.10;;;20.80;76.30;;;;;;5077249;28;20025;-87
2021/05/10 00:05:47;;;;;;;5.90;3.05;;;20.70;76.30;;;;;;5071168;28;20101;-87
2021/05/10 00:08:13;;;;;;;4.65;3.17;;;20.70;76.70;;;;;;5059019;28;20086;-87
2021/05/10 00:10:39;;;;;;;7.10;3.55;;;20.70;76.80;;;;;;5089650;28;20466;-88
2021/05/10 00:13:07;;;;;;;3.95;2.95;;;20.70;76.90;;;;;;5071184;28;20105;-88
2021/05/10 00:15:33;;;;;;;5.03;3.60;;;20.60;76.80;;;;;;5064928;28;20027;-88
2021/05/10 00:18:03;;;;;;;4.20;3.15;;;20.60;77.10;;;;;;5097324;28;20499;-87
2021/05/10 00:20:33;;;;;;;3.33;2.95;;;20.60;77.50;;;;;;5079002;28;20036;-87
2021/05/10 00:23:00;;;;;;;;;;;20.60;77.60;;;;;;5078994;28;20066;-87
2021/05/10 00:25:26;;;;;;;4.20;2.97;;;20.60;78.30;;;;;;5095380;28;19956;-87
2021/05/10 00:27:52;;;;;;;4.95;3.08;;;20.60;78.10;;;;;;5095268;28;20055;-87
2021/05/10 00:30:19;;;;;;;4.65;3.28;;;20.60;78.10;;;;;;5095265;28;20040;-88
2021/05/10 00:32:45;;;;;;;4.13;3.53;;;20.50;78.30;;;;;;5044079;28;20028;-87
2021/05/10 00:35:12;;;;;;;4.30;3.17;;;20.50;78.40;;;;;;5067295;28;20032;-87
2021/05/10 00:37:38;;;;;;;7.80;3.35;;;20.50;78.70;;;;;;5078227;28;20024;-87
2021/05/10 00:40:06;;;;;;;4.82;3.50;;;20.50;78.90;;;;;;5078065;28;20030;-87
2021/05/10 00:42:31;;;;;;;6.85;3.80;;;20.50;79.10;;;;;;5064683;28;20028;-87
2021/05/10 00:44:57;;;;;;;6.40;3.25;;;20.50;79.20;;;;;;5069723;28;20058;-87
2021/05/10 00:47:23;;;;;;;6.70;3.90;;;20.50;79.30;;;;;;5055732;28;20024;-87
2021/05/10 00:49:48;;;;;;;5.18;3.35;;;20.50;79.40;;;;;;5057263;28;20060;-87
2021/05/10 00:52:14;;;;;;;6.38;3.45;;;20.50;79.60;;;;;;5067140;28;20029;-87
2021/05/10 00:54:40;;;;;;;6.22;3.70;;;20.40;79.80;;;;;;5057728;28;20020;-88
2021/05/10 00:57:06;;;;;;;4.78;3.58;;;20.40;79.10;;;;;;5074878;28;20037;-87
2021/05/10 00:59:31;;;;;;;5.13;3.60;;;20.40;79.20;;;;;;5060078;28;20031;-86
2021/05/10 01:01:57;;;;;;;5.32;3.15;;;20.40;79.60;;;;;;5057476;28;20051;-87
2021/05/10 01:04:23;;;;;;;5.70;3.70;;;20.40;79.60;;;;;;5064838;28;20502;-87
2021/05/10 01:06:49;;;;;;;7.03;3.72;;;20.30;79.90;;;;;;5075965;28;20039;-87
2021/05/10 01:09:14;;;;;;;6.25;4.00;;;20.30;79.70;;;;;;5057135;28;20025;-87
2021/05/10 01:11:40;;;;;;;5.90;4.00;;;20.30;80.10;;;;;;5062271;28;20024;-87
2021/05/10 01:14:06;;;;;;;6.82;4.10;;;20.30;79.90;;;;;;5057775;28;20048;-87
2021/05/10 01:16:31;;;;;;;4.65;3.08;;;20.20;80.00;;;;;;5049906;28;20039;-87
2021/05/10 01:18:57;;;;;;;4.60;3.45;;;20.20;80.20;;;;;;5094541;28;20028;-87
2021/05/10 01:21:24;;;;;;;5.57;3.80;;;20.20;80.40;;;;;;5073689;28;20031;-87
2021/05/10 01:23:50;;;;;;;4.75;3.65;;;20.20;80.40;;;;;;5084480;28;20023;-87
2021/05/10 01:26:16;;;;;;;4.80;3.45;;;20.20;80.70;;;;;;5058998;28;20028;-87
2021/05/10 01:28:42;;;;;;;4.78;3.72;;;20.20;80.60;;;;;;5069299;28;20021;-87
2021/05/10 01:31:08;;;;;;;6.70;3.50;;;20.10;80.70;;;;;;5068502;28;20029;-87
2021/05/10 01:33:35;;;;;;;6.50;4.03;;;20.10;80.90;;;;;;5070756;28;20393;-87
2021/05/10 01:36:00;;;;;;;5.07;3.80;;;20.00;81.00;;;;;;5066309;28;20036;-87
2021/05/10 01:38:26;;;;;;;5.38;3.70;;;20.00;81.10;;;;;;5061301;28;20024;-87
2021/05/10 01:40:52;;;;;;;8.10;4.22;;;20.00;81.20;;;;;;5067264;28;20081;-87
2021/05/10 01:43:18;;;;;;;7.13;3.83;;;20.00;81.50;;;;;;5073753;28;20085;-87
2021/05/10 01:45:45;;;;;;;5.55;3.65;;;20.00;81.70;;;;;;5073927;28;20422;-87
2021/05/10 01:48:12;;;;;;;5.43;3.65;;;19.90;81.90;;;;;;5071336;28;20165;-87
2021/05/10 01:50:39;;;;;;;5.25;3.50;;;19.90;82.00;;;;;;5087861;28;20082;-87
2021/05/10 01:53:08;;;;;;;4.85;3.42;;;19.90;82.10;;;;;;5073302;28;20090;-87
2021/05/10 01:55:35;;;;;;;5.25;3.80;;;19.90;82.30;;;;;;5092361;28;20027;-87
2021/05/10 01:58:02;;;;;;;4.90;3.38;;;19.90;82.30;;;;;;5065956;28;20381;-87
2021/05/10 02:00:43;;;;;;;4.70;3.55;;;19.80;82.40;;;;;;5057233;28;20538;-87
2021/05/10 02:03:17;;;;;;;5.45;3.67;;;19.80;82.40;;;;;;5094048;28;20020;-87
2021/05/10 02:05:44;;;;;;;4.80;3.67;;;19.80;82.50;;;;;;5093831;28;20040;-87
2021/05/10 02:08:12;;;;;;;5.95;3.50;;;19.70;82.40;;;;;;5093581;28;20028;-87
2021/05/10 02:10:40;;;;;;;5.55;3.70;;;19.70;82.60;;;;;;5059672;28;20111;-87
2021/05/10 02:13:10;;;;;;;5.78;3.50;;;19.70;82.70;;;;;;5082144;28;20031;-87
2021/05/10 02:15:39;;;;;;;4.93;3.40;;;19.60;82.70;;;;;;5092879;28;20024;-87
2021/05/10 02:18:06;;;;;;;5.15;3.40;;;19.60;83.00;;;;;;5092879;28;20077;-87
2021/05/10 02:20:33;;;;;;;4.40;3.35;;;19.60;83.10;;;;;;5076601;28;20063;-87
2021/05/10 02:23:06;;;;;;;5.32;3.65;;;19.60;83.20;;;;;;5070983;28;20028;-88
2021/05/10 02:25:34;;;;;;;6.10;3.70;;;19.50;83.60;;;;;;5085416;28;20441;-87
2021/05/10 02:28:00;;;;;;;5.90;3.40;;;19.50;83.60;;;;;;5071694;28;20462;-87
2021/05/10 02:30:29;;;;;;;5.43;3.55;;;19.50;83.70;;;;;;5085000;28;20077;-87
2021/05/10 02:32:55;;;;;;;4.53;3.47;;;19.40;83.80;;;;;;5093091;28;20074;-87
2021/05/10 02:35:22;;;;;;;7.65;4.13;;;19.50;83.90;;;;;;5093043;28;20046;-87
2021/05/10 02:37:48;;;;;;;5.25;3.92;;;19.40;84.50;;;;;;5076754;28;20043;-87
2021/05/10 02:40:15;;;;;;;5.82;3.75;;;19.40;84.00;;;;;;5093660;28;20020;-87
2021/05/10 02:42:41;;;;;;;5.85;3.53;;;19.40;84.10;;;;;;5076349;28;20024;-87
2021/05/10 02:45:08;;;;;;;5.53;4.07;;;19.30;84.10;;;;;;5094586;28;20423;-87
2021/05/10 02:47:34;;;;;;;5.78;3.83;;;19.30;84.30;;;;;;5073299;28;20066;-87
2021/05/10 02:49:59;;;;;;;5.28;3.60;;;19.30;84.30;;;;;;5073955;28;20361;-88
2021/05/10 02:52:25;;;;;;;5.20;3.47;;;19.30;84.30;;;;;;5076567;28;20005;-87
2021/05/10 02:54:51;;;;;;;5.68;3.58;;;19.30;84.30;;;;;;5057837;28;20028;-87
2021/05/10 02:57:16;;;;;;;5.95;3.47;;;19.20;84.00;;;;;;5075979;28;20016;-87
2021/05/10 02:59:45;;;;;;;4.20;2.90;;;19.20;83.80;;;;;;5056193;28;20016;-87
2021/05/10 03:02:11;;;;;;;3.75;2.80;;;19.20;83.80;;;;;;5056770;28;20044;-87
2021/05/10 03:04:37;;;;;;;5.68;2.65;;;19.20;84.00;;;;;;5073940;23;20144;-86
2021/05/10 03:07:02;;;;;;;6.63;2.90;;;19.20;83.50;;;;;;5054997;28;20035;-87
2021/05/10 03:09:28;;;;;;;4.50;2.53;;;19.20;83.30;;;;;;5081723;28;20419;-86
2021/05/10 03:11:54;;;;;;;4.05;2.22;;;19.20;83.20;;;;;;5091626;28;20028;-86
2021/05/10 03:14:19;;;;;;;3.90;2.03;;;19.10;81.20;;;;;;5071601;28;20031;-86
2021/05/10 03:16:45;;;;;;;3.92;1.83;;;19.10;80.60;;;;;;5068677;28;20055;-87
2021/05/10 03:19:11;;;;;;;2.92;1.75;;;19.00;80.10;;;;;;5073190;28;20515;-86
2021/05/10 03:21:40;;;;;;;4.35;1.60;;;19.00;79.80;;;;;;5074764;28;20035;-86
2021/05/10 03:24:07;;;;;;;3.53;1.70;;;18.90;78.20;;;;;;5074810;28;20028;-87
2021/05/10 03:26:33;;;;;;;4.85;1.63;;;18.90;76.10;;;;;;5091671;28;20021;-87
2021/05/10 03:28:59;;;;;;;3.03;1.40;;;18.90;76.60;;;;;;5074959;28;20493;-87
2021/05/10 03:31:25;;;;;;;2.28;1.20;;;18.90;76.40;;;;;;5075342;28;20036;-86
2021/05/10 03:33:51;;;;;;;2.45;1.50;;;18.90;76.60;;;;;;5089101;28;20100;-87
2021/05/10 03:36:17;;;;;;;2.90;1.35;;;18.90;76.50;;;;;;5095572;28;20073;-87
2021/05/10 03:38:42;;;;;;;6.22;1.50;;;18.90;76.30;;;;;;5062169;28;20020;-87
2021/05/10 03:41:08;;;;;;;2.42;1.20;;;18.90;76.00;;;;;;5077254;28;20105;-87
2021/05/10 03:43:34;;;;;;;2.42;1.10;;;19.00;75.60;;;;;;5095501;28;20485;-87
2021/05/10 03:46:00;;;;;;;3.22;1.15;;;19.00;75.00;;;;;;5075594;28;20025;-86
2021/05/10 03:48:25;;;;;;;3.38;1.50;;;19.00;75.00;;;;;;5078943;28;20635;-87
2021/05/10 03:50:51;;;;;;;3.20;1.35;;;19.00;75.00;;;;;;5068932;28;20024;-87
2021/05/10 03:53:17;;;;;;;4.25;1.35;;;19.00;74.80;;;;;;5071486;28;20035;-86
2021/05/10 03:55:42;;;;;;;3.88;1.40;;;19.00;74.50;;;;;;5074746;28;20056;-87
2021/05/10 03:58:08;;;;;;;3.45;1.35;;;19.10;72.90;;;;;;5067782;28;20389;-87
2021/05/10 04:00:34;;;;;;;4.53;1.60;;;19.10;72.40;;;;;;5078644;28;20028;-87
2021/05/10 04:03:01;;;;;;;4.25;1.55;;;19.10;71.60;;;;;;5074914;28;20028;-87
2021/05/10 04:13:36;;;;;;;9.23;1.38;;;19.30;70.40;;;;;;5097073;28;20043;-87
2021/05/10 04:16:03;;;;;;;4.00;1.10;;;19.40;69.30;;;;;;5074630;28;20056;-86
2021/05/10 04:18:29;;;;;;;2.03;1.10;;;19.40;69.60;;;;;;5058109;28;20470;-86
2021/05/10 04:20:54;;;;;;;3.60;1.30;;;19.50;68.90;;;;;;5074381;28;20047;-86
2021/05/10 04:23:21;;;;;;;3.63;1.35;;;19.60;67.80;;;;;;5094809;28;20494;-86
2021/05/10 04:25:48;;;;;;;3.22;1.05;;;19.70;67.50;;;;;;5076052;28;20051;-86
2021/05/10 04:28:15;;;;;;;2.65;1.10;;;19.80;66.10;;;;;;5094587;28;20051;-87
2021/05/10 04:30:42;;;;;;;2.78;1.20;;;19.90;66.30;;;;;;5094727;28;20107;-87
2021/05/10 04:33:08;;;;;;;2.53;1.05;;;19.90;66.40;;;;;;5071719;28;20016;-87
2021/05/10 04:35:34;;;;;;;3.65;1.20;;;20.00;65.80;;;;;;5087635;28;20557;-87
2021/05/10 04:38:02;;;;;;;4.07;1.45;;;20.00;65.20;;;;;;5060772;28;20020;-87
2021/05/10 04:40:27;;;;;;;6.45;1.27;;;20.00;65.30;;;;;;5093622;28;20027;-86
2021/05/10 04:42:53;;;;;;;6.75;1.55;;;20.10;64.90;;;;;;5075319;28;20084;-89
2021/05/10 04:45:19;;;;;;;6.50;1.10;;;20.10;63.90;;;;;;5074507;28;20027;-87
2021/05/10 04:47:46;;;;;;;2.03;1.02;;;20.20;64.00;;;;;;5072903;28;20385;-87
2021/05/10 04:50:13;;;;;;;2.15;1.10;;;20.20;63.70;;;;;;5095643;28;20089;-87
2021/05/10 04:52:39;;;;;;;4.50;1.27;;;20.20;63.90;;;;;;5096769;28;20518;-87
2021/05/10 04:55:09;;;;;;;4.75;1.20;;;20.30;62.70;;;;;;5074690;28;20032;-86
2021/05/10 04:57:35;;;;;;;2.80;1.00;;;20.40;63.90;;;;;;5086607;28;20020;-89
2021/05/10 05:00:01;;;;;;;3.65;1.02;;;20.40;62.80;;;;;;5094978;28;20385;-88
2021/05/10 05:02:27;;;;;;;2.78;1.27;;;20.40;64.00;;;;;;5061929;28;20415;-88
2021/05/10 05:04:52;;;;;;;5.72;1.42;;;20.50;64.80;;;;;;5077375;28;20131;-88
2021/05/10 05:07:18;;;;;;;4.97;1.67;;;20.40;65.70;;;;;;5081666;28;20028;-86
2021/05/10 05:09:44;;;;;;;4.35;1.25;;;20.40;65.50;;;;;;5064879;28;20523;-86
2021/05/10 05:12:10;;;;;;;6.32;1.60;;;20.30;65.80;;;;;;5096265;28;20028;-86
2021/05/10 05:14:35;;;;;;;4.35;1.20;;;20.30;65.00;;;;;;5098568;28;20024;-88
2021/05/10 05:17:01;;;;;;;3.85;1.23;;;20.20;65.50;;;;;;5058252;28;20032;-87
2021/05/10 05:19:27;;;;;;;4.85;1.30;;;20.20;65.20;;;;;;5072355;28;20029;-86
2021/05/10 05:21:52;;;;;;;4.60;1.52;;;20.20;65.80;;;;;;5039236;28;20074;-87
2021/05/10 05:24:18;;;;;;;5.68;1.60;;;20.20;66.00;;;;;;5059692;28;20470;-87
2021/05/10 05:26:44;;;;;;;5.35;1.40;;;20.20;66.60;;;;;;5075150;28;20127;-86
2021/05/10 05:29:10;;;;;;;6.55;1.98;;;20.20;67.10;;;;;;5095458;28;20023;-91
2021/05/10 05:31:36;;;;;;;6.05;1.50;;;20.10;68.10;;;;;;5074046;28;20039;-86
2021/05/10 05:34:02;;;;;;;7.22;1.65;;;20.20;68.50;;;;;;5084548;28;20043;-86
2021/05/10 05:36:28;;;;;;;6.20;1.48;;;20.10;69.00;;;;;;5076626;28;20024;-86
2021/05/10 05:38:54;;;;;;;5.30;1.50;;;20.00;69.20;;;;;;5093323;28;20031;-87
2021/05/10 05:41:19;;;;;;;4.03;1.23;;;20.00;69.60;;;;;;5073297;28;20025;-88
2021/05/10 05:43:45;;;;;;;7.07;1.20;;;19.90;69.60;;;;;;5058242;28;20090;-88
2021/05/10 05:46:14;;;;;;;4.25;0.90;;;19.90;69.70;;;;;;5060233;28;20024;-86
2021/05/10 05:48:40;;;;;;;5.80;1.33;;;19.80;70.30;;;;;;5073893;28;20412;-86
2021/05/10 05:51:10;;;;;;;3.55;0.95;;;19.80;70.00;;;;;;5070706;28;20051;-87
2021/05/10 05:53:36;;;;;;;2.47;0.80;;;19.80;70.70;;;;;;5083607;28;20386;-87
2021/05/10 05:56:02;;;;;;;3.53;0.80;;;19.70;71.20;;;;;;5093461;28;20039;-87
2021/05/10 05:58:27;;;;;;;7.65;1.48;;;19.70;71.60;;;;;;5093895;28;20020;-87
2021/05/10 06:00:53;;;;;;;4.65;1.00;;;19.60;72.10;;;;;;5056657;28;20035;-87
2021/05/10 06:03:20;;;;;;;2.38;1.00;;;19.50;72.30;;;;;;5092921;28;20521;-85
2021/05/10 06:05:46;;;;;;;3.38;1.10;;;19.40;71.80;;;;;;5098463;28;20151;-85
2021/05/10 06:08:14;;;;;;;1.17;1.00;;;19.40;72.30;;;;;;5072996;28;20020;-85
2021/05/10 06:10:40;;;;;;;3.80;1.10;;;19.30;72.70;;;;;;5072951;28;20032;-85
2021/05/10 06:13:06;;;;;;;3.78;0.90;;;19.30;72.80;;;;;;5071996;28;20061;-87
2021/05/10 06:15:32;;;;;;;2.20;0.90;;;19.20;72.90;;;;;;5083211;28;20070;-86
2021/05/10 06:17:58;;;;;;;2.22;0.93;;;19.20;73.70;;;;;;5086466;28;20028;-85
2021/05/10 06:20:25;;;;;;;2.83;1.20;;;19.20;74.70;;;;;;5069322;28;20540;-87
2021/05/10 06:22:51;;;;;;;3.35;1.48;;;19.20;74.20;;;;;;5067518;28;20161;-87
2021/05/10 06:25:16;;;;;;;3.72;1.33;;;19.20;75.00;;;;;;5092181;28;20127;-86
2021/05/10 06:27:42;;;;;;;3.47;1.10;;;19.20;75.20;;;;;;5054047;28;20066;-87
2021/05/10 06:30:10;;;;;;;0.73;0.60;;;19.20;74.10;;;;;;5068572;28;20032;-87
2021/05/10 06:32:37;;;;;;;2.47;0.70;;;19.20;73.00;;;;;;5092699;28;20358;-86
2021/05/10 06:35:03;;;;;;;1.58;0.90;;;19.20;72.50;;;;;;5092503;28;20020;-87
2021/05/10 06:37:29;;;;;;;3.53;0.80;;;19.20;72.90;;;;;;5080975;28;20020;-87
2021/05/10 06:39:56;;;;;;;1.33;0.50;;;19.10;73.20;;;;;;5076069;28;20020;-86
2021/05/10 06:42:23;;;;;;;1.85;0.65;;;19.00;72.80;;;;;;5086171;28;20021;-87
2021/05/10 06:44:48;;;;;;;0.50;0.40;;;19.00;72.20;;;;;;5083893;28;20062;-87
2021/05/10 06:47:14;;;;;;;0.80;0.45;;;18.90;71.60;;;;;;5091903;28;20012;-86
2021/05/10 06:49:40;;;;;;;1.25;0.50;;;18.90;72.10;;;;;;5075240;28;20063;-86
2021/05/10 06:52:05;;;;;;;0.85;0.50;;;18.80;72.40;;;;;;5067789;28;20367;-86
2021/05/10 06:54:31;;;;;;;0.40;0.40;;;18.80;72.60;;;;;;5071785;28;20037;-85
2021/05/10 06:56:57;;;;;;;1.00;0.40;;;18.80;72.70;;;;;;5071616;28;20503;-86
2021/05/10 06:59:22;;;;;;;1.48;0.50;;;18.80;73.40;;;;;;5055009;28;20112;-86
2021/05/10 07:01:48;;;;;;;0.75;0.50;;;18.70;74.20;;;;;;5077933;28;20484;-86
2021/05/10 07:04:14;;;;;;;2.00;0.70;;;18.80;74.70;;;;;;5072981;28;20094;-86
2021/05/10 07:06:42;;;;;;;1.40;0.60;;;18.80;74.60;;;;;;5095136;28;20063;-86
2021/05/10 07:09:08;;;;;;;0.85;0.70;;;18.80;74.30;;;;;;5100480;28;20039;-86
2021/05/10 07:11:34;;;;;;;2.70;0.75;;;18.70;74.10;;;;;;5082628;28;20063;-86
2021/05/10 07:14:00;;;;;;;2.72;0.50;;;18.70;74.60;;;;;;5082866;28;20059;-86
2021/05/10 07:16:26;;;;;;;1.95;0.80;;;18.70;73.50;;;;;;5082355;28;20027;-86
2021/05/10 07:18:51;;;;;;;5.00;0.75;;;18.70;73.80;;;;;;5066634;28;20029;-87
2021/05/10 07:21:17;;;;;;;2.55;0.73;;;18.70;74.10;;;;;;5092612;28;20107;-87
2021/05/10 07:23:42;;;;;;;0.95;0.80;;;18.70;72.90;;;;;;5065536;28;20389;-87
2021/05/10 07:26:08;;;;;;;2.58;0.85;;;18.60;73.20;;;;;;5077764;28;20020;-86
2021/05/10 07:28:34;;;;;;;2.95;1.02;;;18.60;73.90;;;;;;5086826;28;20054;-86
2021/05/10 07:31:00;;;;;;;4.13;0.90;;;18.70;72.90;;;;;;5099108;28;20073;-86
2021/05/10 07:33:25;;;;;;;1.80;0.98;;;18.70;73.10;;;;;;5060011;28;20021;-86
2021/05/10 07:35:51;;;;;;;2.65;1.00;;;18.70;72.90;;;;;;5063854;28;20082;-86
2021/05/10 07:38:17;;;;;;;4.07;1.20;;;18.70;73.10;;;;;;5064813;28;20556;-85
2021/05/10 07:40:42;;;;;;;3.33;1.17;;;18.70;73.60;;;;;;5077491;28;20086;-86
2021/05/10 07:43:08;;;;;;;2.90;1.10;;;18.70;73.60;;;;;;5051151;28;20021;-86
2021/05/10 07:45:35;;;;;;;3.45;1.17;;;18.80;74.10;;;;;;5075658;28;20024;-86
2021/05/10 07:48:06;;;;;;;3.45;1.75;;;18.80;73.80;;;;;;5063620;28;20025;-86
2021/05/10 07:50:32;;;;;;;4.30;1.08;;;18.80;74.10;;;;;;5078303;28;20033;-85
2021/05/10 07:52:58;;;;;;;1.98;1.10;;;18.80;74.60;;;;;;5073412;28;20080;-86
2021/05/10 07:55:24;;;;;;;1.77;1.00;;;18.80;74.70;;;;;;5099402;28;20028;-85
2021/05/10 07:57:52;;;;;;;2.05;1.05;;;18.80;75.10;;;;;;5087878;28;20027;-86
2021/05/10 08:00:23;;;;;;;1.33;1.08;;;18.80;75.00;;;;;;5088140;28;20080;-86
2021/05/10 08:02:52;;;;;;;2.03;1.00;;;18.80;75.10;;;;;;5071738;28;20073;-86
2021/05/10 08:05:18;;;;;;;2.25;1.10;;;18.80;74.90;;;;;;5108355;28;20468;-86
2021/05/10 08:07:43;;;;;;;2.47;1.15;;;18.80;75.30;;;;;;5082705;28;20042;-85
2021/05/10 08:10:09;;;;;;;3.28;1.00;;;18.80;75.40;;;;;;5098007;28;20506;-87
2021/05/10 08:12:35;;;;;;;4.90;1.10;;;18.80;74.90;;;;;;5064145;28;20028;-86
2021/05/10 08:15:01;;;;;;;3.47;1.52;;;18.70;75.10;;;;;;5102945;28;20098;-86
2021/05/10 08:17:29;;;;;;;5.88;1.42;;;18.70;75.30;;;;;;5111566;28;20059;-85
2021/05/10 08:19:55;;;;;;;1.50;1.00;;;18.60;75.70;;;;;;5099500;28;20018;-86
2021/05/10 08:22:21;;;;;;;4.95;0.98;;;18.60;75.50;;;;;;5099485;28;20031;-87
2021/05/10 08:24:46;;;;;;;2.42;1.20;;;18.60;75.80;;;;;;5100129;28;20027;-86
2021/05/10 08:27:12;;;;;;;2.08;1.17;;;18.50;76.40;;;;;;5079285;28;20020;-87
2021/05/10 08:29:38;;;;;;;2.78;1.02;;;18.50;76.90;;;;;;5088251;28;20468;-87
2021/05/10 08:32:04;;;;;;;2.05;1.20;;;18.50;76.30;;;;;;5084766;28;20032;-88
2021/05/10 08:34:29;;;;;;;3.05;1.15;;;18.50;76.60;;;;;;5052691;28;20524;-87
2021/05/10 08:36:55;;;;;;;3.28;1.05;;;18.50;77.00;;;;;;5065275;28;20030;-86
2021/05/10 08:39:21;;;;;;;3.80;0.93;;;18.50;76.80;;;;;;5090856;28;20077;-86
2021/05/10 08:41:47;;;;;;;2.28;1.02;;;18.50;76.80;;;;;;5088664;28;20027;-87
2021/05/10 08:44:13;;;;;;;3.00;1.25;;;18.50;77.20;;;;;;5108462;28;20055;-87
2021/05/10 08:46:41;;;;;;;2.13;1.05;;;18.50;77.80;;;;;;5086807;28;20024;-87
2021/05/10 08:49:07;;;;;;;1.92;1.27;;;18.50;78.40;;;;;;5074754;28;20039;-87
2021/05/10 08:51:34;;;;;;;2.38;1.10;;;18.50;78.90;;;;;;5115987;28;20037;-86
2021/05/10 08:54:00;;;;;;;5.72;1.30;;;18.50;77.80;;;;;;5112405;28;20068;-87
2021/05/10 08:56:27;;;;;;;1.77;1.05;;;18.50;78.00;;;;;;5088368;28;20028;-87
2021/05/10 08:58:52;;;;;;;2.97;1.10;;;18.50;76.80;;;;;;5093173;28;20019;-86
2021/05/10 09:01:20;;;;;;;1.40;1.10;;;18.40;76.50;;;;;;5086052;28;20039;-86
2021/05/10 09:03:50;;;;;;;3.67;1.20;;;18.40;76.70;;;;;;5102562;22;20028;-84
2021/05/10 09:06:30;;;;;;;1.52;1.10;;;18.40;77.20;;;;;;5113188;27;20023;-86
2021/05/10 09:09:07;;;;;;;3.90;1.10;;;18.40;76.40;;;;;;5099741;27;20050;-83
2021/05/10 09:11:33;;;;;;;2.50;1.23;;;18.30;76.50;;;;;;5117141;27;20356;-84
2021/05/10 09:13:59;;;;;;;1.35;1.10;;;18.30;75.90;;;;;;5105189;27;20147;-84
2021/05/10 09:16:25;;;;;;;2.47;0.93;;;18.30;75.10;;;;;;5116156;27;20092;-84
2021/05/10 09:18:55;;;;;;;1.13;0.95;;;18.30;75.80;;;;;;5115008;27;20096;-84
2021/05/10 09:21:30;;;;;;;1.98;1.20;;;18.30;75.10;;;;;;5116963;27;20115;-84
2021/05/10 09:23:58;;;;;;;2.13;1.30;;;18.30;75.60;;;;;;5116937;27;20027;-84
2021/05/10 09:26:31;;;;;;;1.45;1.00;;;18.30;75.70;;;;;;5117049;27;20030;-85
2021/05/10 09:28:57;;;;;;;3.72;1.13;;;18.30;75.90;;;;;;5116387;27;20015;-84
2021/05/10 09:31:23;;;;;;;2.72;1.25;;;18.30;75.70;;;;;;5126182;27;20024;-84
2021/05/10 09:33:48;;;;;;;2.28;1.50;;;18.30;75.70;;;;;;5129091;27;20023;-84
2021/05/10 09:36:34;;;;;;;3.00;1.48;;;18.30;75.40;;;;;;5116733;27;20022;-84
2021/05/10 09:39:06;;;;;;;1.80;1.20;;;18.30;75.70;;;;;;5116988;27;20030;-84
2021/05/10 09:41:32;;;;;;;3.03;1.35;;;18.30;76.30;;;;;;5116860;27;20023;-84
2021/05/10 09:44:05;;;;;;;1.65;1.10;;;18.40;76.40;;;;;;5121158;27;20065;-84
2021/05/10 09:46:42;;;;;;;2.10;1.60;;;18.40;76.50;;;;;;5134914;27;20060;-84
2021/05/10 09:49:08;;;;;;;2.65;1.05;;;18.40;77.90;;;;;;5116885;27;20413;-84
2021/05/10 09:51:35;;;;;;;2.08;1.25;;;18.30;77.80;;;;;;5135269;27;20027;-84
2021/05/10 09:54:10;;;;;;;2.95;1.35;;;18.30;78.10;;;;;;5125165;27;20070;-85
2021/05/10 09:56:37;;;;;;;3.40;1.40;;;18.20;77.80;;;;;;5116509;27;20476;-86
2021/05/10 09:59:14;;;;;;;3.00;1.40;;;18.10;77.60;;;;;;5102060;27;20046;-85
2021/05/10 10:01:40;;;;;;;2.83;1.23;;;18.10;78.90;;;;;;5124027;27;20479;-85
2021/05/10 10:04:06;;;;;;;2.53;1.30;;;18.10;78.90;;;;;;5116634;27;20133;-85
2021/05/10 10:06:32;;;;;;;2.72;1.48;;;18.10;79.20;;;;;;5080293;27;20020;-85
2021/05/10 10:08:58;;;;;;;4.30;2.45;;;18.10;79.40;;;;;;5098752;27;20049;-84
2021/05/10 10:11:26;;;;;;;2.40;1.30;;;18.00;79.60;;;;;;5111878;28;20468;-85
2021/05/10 10:13:55;;;;;;;3.63;1.55;;;18.10;80.40;;;;;;5095014;28;20043;-85
2021/05/10 10:16:23;;;;;;;3.60;1.48;;;18.10;80.70;;;;;;5100850;27;20478;-84
2021/05/10 10:18:50;;;;;;;3.08;1.55;;;18.10;80.60;;;;;;5104015;27;20022;-85
2021/05/10 10:21:18;;;;;;;2.65;1.90;;;18.10;80.60;;;;;;5098273;27;20027;-85
2021/05/10 10:24:05;;;;;;;2.75;1.73;;;18.10;80.60;;;;;;5098683;27;20534;-86
2021/05/10 10:26:34;;;;;;;2.38;1.50;;;18.10;80.20;;;;;;5101409;28;20020;-85
2021/05/10 10:29:08;;;;;;;3.67;1.50;;;18.10;80.20;;;;;;5115396;27;20478;-85
2021/05/10 10:31:40;;;;;;;3.03;1.80;;;18.10;81.20;;;;;;5115996;27;20046;-85
2021/05/10 10:34:18;;;;;;;3.05;1.65;;;18.20;80.70;;;;;;5134086;27;20048;-85
2021/05/10 10:36:59;;;;;;;4.60;1.45;;;18.20;80.90;;;;;;5109526;27;20070;-85
2021/05/10 10:39:27;;;;;;;4.28;1.75;;;18.20;80.50;;;;;;5106252;28;20030;-85
2021/05/10 10:42:02;;;;;;;2.08;1.55;;;18.30;80.80;;;;;;5115684;27;20092;-85
2021/05/10 10:44:42;;;;;;;3.00;1.77;;;18.40;81.40;;;;;;5107129;27;20054;-85
2021/05/10 10:47:11;;;;;;;4.03;1.97;;;18.40;80.40;;;;;;5085362;27;20031;-84
2021/05/10 10:49:41;;;;;;;2.47;1.75;;;18.40;79.90;;;;;;5132741;27;20118;-84
2021/05/10 10:52:19;;;;;;;2.30;1.70;;;18.40;80.30;;;;;;5115430;27;20019;-86
2021/05/10 10:54:46;;;;;;;3.72;1.73;;;18.40;80.30;;;;;;5127034;27;20031;-87
2021/05/10 10:57:33;;;;;;;4.00;2.30;;;18.40;81.20;;;;;;5114491;28;20028;-86
2021/05/10 10:59:59;;;;;;;2.67;1.73;;;18.40;81.30;;;;;;5097038;28;20024;-86
2021/05/10 11:02:28;;;;;;;3.03;1.80;;;18.50;81.70;;;;;;5082539;28;20035;-87
2021/05/10 11:05:16;;;;;;;3.70;2.10;;;18.50;82.00;;;;;;5104112;28;20038;-87
2021/05/10 11:07:53;;;;;;;3.47;1.90;;;18.50;82.10;;;;;;5101831;28;20028;-88
2021/05/10 11:10:51;;;;;;;4.18;2.13;;;18.50;82.40;;;;;;5126561;28;20011;-88
2021/05/10 11:13:26;;;;;;;3.25;2.00;;;18.40;83.10;;;;;;5114007;28;20007;-85
2021/05/10 11:16:02;;;;;;;2.63;2.00;;;18.40;84.10;;;;;;5109843;28;20024;-85
2021/05/10 11:18:38;;;;;;;3.80;2.25;;;18.40;84.50;;;;;;5113956;28;20560;-84
2021/05/10 11:21:25;;;;;;;4.32;2.45;;;18.40;84.00;;;;;;5134874;28;20110;-84
2021/05/10 11:23:59;;;;;;;3.33;2.05;;;18.30;85.00;;;;;;5099910;28;20114;-84
2021/05/10 11:26:43;;;;;;;4.57;2.50;;;18.30;84.00;;;;;;5108545;28;20024;-85
2021/05/10 11:29:39;;;;;;;3.70;2.47;;;18.20;84.20;;;;;;5098982;28;20027;-85
2021/05/10 11:32:07;;;;;;;3.28;2.40;;;18.00;85.00;;;;;;5111217;28;20476;-85
2021/05/10 11:34:37;;;;;;;4.22;2.50;;;17.90;85.30;;;;;;5125230;28;20028;-85
2021/05/10 11:37:05;;;;;;;5.70;2.80;;;17.90;85.80;;;;;;5126900;28;20027;-85
2021/05/10 11:39:33;;;;;;;4.15;2.90;;;17.90;86.30;;;;;;5110870;28;20043;-84
2021/05/10 11:42:06;;;;;;;4.53;2.90;;;17.80;86.10;;;;;;5132873;28;20464;-84
2021/05/10 11:44:34;;;;;;;3.35;2.15;;;17.80;86.50;;;;;;5127571;28;20123;-85
2021/05/10 11:47:02;;;;;;;2.25;1.60;;;17.70;85.60;;;;;;5114591;28;20119;-85
2021/05/10 11:49:43;;;;;;;2.45;1.63;;;17.60;85.50;;;;;;5120536;28;20092;-85
2021/05/10 11:52:11;;;;;;;3.35;1.63;;;17.60;85.80;;;;;;5104112;27;20114;-85
2021/05/10 11:54:46;;;;;;;2.08;1.50;;;17.50;84.30;;;;;;5118692;27;20551;-84
2021/05/10 11:57:14;;;;;;;3.15;1.60;;;17.50;85.40;;;;;;5118373;27;20019;-86
2021/05/10 11:59:48;;;;;;;2.00;1.08;;;17.50;87.00;;;;;;5136896;27;20015;-86
2021/05/10 12:02:28;;;;;;;2.47;1.40;;;17.50;86.20;;;;;;5118533;27;20034;-87
2021/05/10 12:04:59;;;;;;;3.03;2.03;;;17.50;87.10;;;;;;5116969;27;20035;-85
2021/05/10 12:07:30;;;;;;;2.33;1.50;;;17.60;87.90;;;;;;5097873;28;20058;-85
2021/05/10 12:09:58;;;;;;;3.10;1.75;;;17.70;88.40;;;;;;5116658;28;20035;-86
2021/05/10 12:12:46;;;;;;;2.13;1.60;;;17.80;88.00;;;;;;5123090;27;20023;-86
2021/05/10 12:15:19;;;;;;;2.92;1.63;;;17.90;87.10;;;;;;5120516;27;20051;-86
2021/05/10 12:17:50;;;;;;;2.45;1.80;;;18.00;86.90;;;;;;5118733;27;20039;-84
2021/05/10 12:20:24;;;;;;;;;;;18.00;86.60;;;;;;5101763;27;20035;-83
2021/05/10 12:22:54;;;;;;;2.25;1.95;;;18.10;86.50;;;;;;5114430;28;19911;-85
2021/05/10 12:25:24;;;;;;;3.25;1.92;;;18.20;87.10;;;;;;5098671;27;20572;-84
2021/05/10 12:28:05;;;;;;;2.15;1.80;;;18.20;87.50;;;;;;5097784;28;20092;-85
2021/05/10 12:30:33;;;;;;;2.60;2.10;;;18.40;88.10;;;;;;5117385;27;20020;-85
2021/05/10 12:33:04;;;;;;;3.95;2.20;;;18.50;87.70;;;;;;5108457;27;20027;-85
2021/05/10 12:35:31;;;;;;;;;;;18.60;84.90;;;;;;5112369;27;20019;-84
2021/05/10 12:37:59;;;;;;;4.80;2.20;;;18.70;85.10;;;;;;5102483;28;20003;-84
2021/05/10 12:40:27;;;;;;;3.92;2.42;;;18.70;84.40;;;;;;5115795;27;20015;-84
2021/05/10 12:43:06;;;;;;;4.97;2.20;;;18.70;83.20;;;;;;5114786;27;20016;-87
2021/05/10 12:45:33;;;;;;;3.40;2.42;;;18.80;84.00;;;;;;5112715;27;20477;-85
2021/05/10 12:48:09;;;;;;;2.78;2.10;;;18.80;84.40;;;;;;5106405;27;20472;-85
2021/05/10 12:50:36;;;;;;;3.53;2.30;;;18.90;85.20;;;;;;5114661;27;20122;-85
2021/05/10 12:53:04;;;;;;;3.80;2.28;;;18.90;84.50;;;;;;5118870;27;20016;-85
2021/05/10 12:55:32;;;;;;;3.15;2.17;;;19.00;84.20;;;;;;5114051;28;20118;-85
2021/05/10 12:57:58;;;;;;;2.70;2.20;;;19.00;84.40;;;;;;5116141;27;20053;-85
2021/05/10 13:00:30;;;;;;;3.65;2.35;;;19.20;84.60;;;;;;5111421;27;20035;-85